sensor_id;sensor_type;location;lat;lon;timestamp;pressure;altitude;pressure_sealevel;temperature;humidity
51972;BME280;37991;49.662;10.060;2022-12-13T00:00:17;98931.59;;;-7.67;86.08
51972;BME280;37991;49.662;10.060;2022-12-13T00:02:44;98931.59;;;-7.61;86.89
51972;BME280;37991;49.662;10.060;2022-12-13T00:05:10;98929.91;;;-7.62;86.49
51972;BME280;37991;49.662;10.060;2022-12-13T00:07:36;98927.28;;;-7.53;86.89
51972;BME280;37991;49.662;10.060;2022-12-13T00:10:03;98929.84;;;-7.55;87.24
51972;BME280;37991;49.662;10.060;2022-12-13T00:12:28;98929.84;;;-7.56;87.23
51972;BME280;37991;49.662;10.060;2022-12-13T00:14:54;98929.00;;;-7.55;87.60
51972;BME280;37991;49.662;10.060;2022-12-13T00:17:19;98934.94;;;-7.53;87.60
51972;BME280;37991;49.662;10.060;2022-12-13T00:19:48;98923.91;;;-7.54;88.65
51972;BME280;37991;49.662;10.060;2022-12-13T00:22:13;98922.16;;;-7.44;88.84
51972;BME280;37991;49.662;10.060;2022-12-13T00:24:39;98916.25;;;-7.40;89.06
51972;BME280;37991;49.662;10.060;2022-12-13T00:27:04;98915.41;;;-7.48;89.61
51972;BME280;37991;49.662;10.060;2022-12-13T00:29:30;98916.28;;;-7.54;90.58
51972;BME280;37991;49.662;10.060;2022-12-13T00:31:55;98913.69;;;-7.41;91.05
51972;BME280;37991;49.662;10.060;2022-12-13T00:34:20;98908.63;;;-7.46;91.71
51972;BME280;37991;49.662;10.060;2022-12-13T00:36:46;98899.25;;;-7.41;91.86
51972;BME280;37991;49.662;10.060;2022-12-13T00:39:12;98896.72;;;-7.42;91.43
51972;BME280;37991;49.662;10.060;2022-12-13T00:41:40;98896.72;;;-7.39;92.08
51972;BME280;37991;49.662;10.060;2022-12-13T00:44:06;98894.16;;;-7.38;91.80
51972;BME280;37991;49.662;10.060;2022-12-13T00:46:31;98892.47;;;-7.40;92.23
51972;BME280;37991;49.662;10.060;2022-12-13T00:48:58;98884.00;;;-7.39;92.15
51972;BME280;37991;49.662;10.060;2022-12-13T00:51:26;98896.69;;;-7.38;92.15
51972;BME280;37991;49.662;10.060;2022-12-13T00:53:52;98888.22;;;-7.38;92.02
51972;BME280;37991;49.662;10.060;2022-12-13T00:56:20;98885.66;;;-7.35;92.42
51972;BME280;37991;49.662;10.060;2022-12-13T00:58:48;98886.50;;;-7.35;92.29
51972;BME280;37991;49.662;10.060;2022-12-13T01:01:15;98884.78;;;-7.30;92.89
51972;BME280;37991;49.662;10.060;2022-12-13T01:03:41;98883.06;;;-7.31;92.51
51972;BME280;37991;49.662;10.060;2022-12-13T01:06:16;98883.13;;;-7.34;92.65
51972;BME280;37991;49.662;10.060;2022-12-13T01:08:43;98881.44;;;-7.36;92.62
51972;BME280;37991;49.662;10.060;2022-12-13T01:11:10;98878.03;;;-7.34;93.23
51972;BME280;37991;49.662;10.060;2022-12-13T01:13:35;98868.66;;;-7.30;93.04
51972;BME280;37991;49.662;10.060;2022-12-13T01:16:03;98872.91;;;-7.29;93.12
51972;BME280;37991;49.662;10.060;2022-12-13T01:18:29;98876.31;;;-7.30;93.23
51972;BME280;37991;49.662;10.060;2022-12-13T01:21:06;98888.19;;;-7.32;92.31
51972;BME280;37991;49.662;10.060;2022-12-13T01:23:32;98894.16;;;-7.41;91.19
51972;BME280;37991;49.662;10.060;2022-12-13T01:26:01;98886.56;;;-7.47;90.43
51972;BME280;37991;49.662;10.060;2022-12-13T01:28:27;98880.63;;;-7.51;89.93
51972;BME280;37991;49.662;10.060;2022-12-13T01:30:58;98884.94;;;-7.63;89.23
51972;BME280;37991;49.662;10.060;2022-12-13T01:33:24;98882.38;;;-7.60;88.90
51972;BME280;37991;49.662;10.060;2022-12-13T01:35:51;98875.66;;;-7.70;88.73
51972;BME280;37991;49.662;10.060;2022-12-13T01:38:16;98869.69;;;-7.73;88.70
51972;BME280;37991;49.662;10.060;2022-12-13T01:40:52;98883.28;;;-7.74;88.47
51972;BME280;37991;49.662;10.060;2022-12-13T01:43:24;98869.72;;;-7.74;88.53
51972;BME280;37991;49.662;10.060;2022-12-13T01:45:50;98874.81;;;-7.79;87.97
51972;BME280;37991;49.662;10.060;2022-12-13T01:48:20;98866.38;;;-7.84;88.06
51972;BME280;37991;49.662;10.060;2022-12-13T01:50:50;98868.94;;;-7.87;88.31
51972;BME280;37991;49.662;10.060;2022-12-13T01:53:21;98863.00;;;-7.87;88.91
51972;BME280;37991;49.662;10.060;2022-12-13T01:55:51;98871.47;;;-7.87;89.04
51972;BME280;37991;49.662;10.060;2022-12-13T01:58:19;98870.59;;;-7.83;89.31
51972;BME280;37991;49.662;10.060;2022-12-13T02:00:45;98870.59;;;-7.86;89.19
51972;BME280;37991;49.662;10.060;2022-12-13T02:03:12;98874.81;;;-7.82;89.38
51972;BME280;37991;49.662;10.060;2022-12-13T02:05:42;98868.91;;;-7.78;89.54
51972;BME280;37991;49.662;10.060;2022-12-13T02:08:10;98869.75;;;-7.83;89.54
51972;BME280;37991;49.662;10.060;2022-12-13T02:10:35;98867.22;;;-7.85;89.58
51972;BME280;37991;49.662;10.060;2022-12-13T02:13:02;98874.88;;;-7.88;89.75
51972;BME280;37991;49.662;10.060;2022-12-13T02:15:56;98873.16;;;-7.86;90.46
51972;BME280;37991;49.662;10.060;2022-12-13T02:18:30;98876.56;;;-7.91;90.55
51972;BME280;37991;49.662;10.060;2022-12-13T02:23:55;98868.06;;;-7.83;90.61
51972;BME280;37991;49.662;10.060;2022-12-13T02:26:58;98868.91;;;-7.84;90.89
51972;BME280;37991;49.662;10.060;2022-12-13T02:35:08;98880.75;;;-7.77;90.75
51972;BME280;37991;49.662;10.060;2022-12-13T02:37:49;98876.50;;;-7.72;91.01
51972;BME280;37991;49.662;10.060;2022-12-13T02:40:32;98863.78;;;-7.68;90.77
51972;BME280;37991;49.662;10.060;2022-12-13T02:43:08;98863.78;;;-7.72;90.75
51972;BME280;37991;49.662;10.060;2022-12-13T02:45:48;98852.78;;;-7.75;90.23
51972;BME280;37991;49.662;10.060;2022-12-13T02:48:18;98847.69;;;-7.77;90.51
51972;BME280;37991;49.662;10.060;2022-12-13T02:50:45;98861.25;;;-7.76;90.51
51972;BME280;37991;49.662;10.060;2022-12-13T02:53:13;98849.38;;;-7.76;90.54
51972;BME280;37991;49.662;10.060;2022-12-13T02:55:39;98844.31;;;-7.77;90.10
51972;BME280;37991;49.662;10.060;2022-12-13T02:58:05;98843.44;;;-7.73;90.27
51972;BME280;37991;49.662;10.060;2022-12-13T03:03:39;98835.81;;;-7.76;90.22
51972;BME280;37991;49.662;10.060;2022-12-13T03:12:01;98840.09;;;-7.92;90.60
51972;BME280;37991;49.662;10.060;2022-12-13T03:15:26;98840.13;;;-7.95;91.08
51972;BME280;37991;49.662;10.060;2022-12-13T03:18:03;98838.41;;;-7.95;91.79
51972;BME280;37991;49.662;10.060;2022-12-13T03:20:31;98835.88;;;-7.90;91.89
51972;BME280;37991;49.662;10.060;2022-12-13T03:22:57;98837.56;;;-7.84;91.67
51972;BME280;37991;49.662;10.060;2022-12-13T03:25:25;98837.53;;;-7.80;91.57
51972;BME280;37991;49.662;10.060;2022-12-13T03:27:52;98838.38;;;-7.81;91.12
51972;BME280;37991;49.662;10.060;2022-12-13T03:30:17;98843.47;;;-7.81;90.92
51972;BME280;37991;49.662;10.060;2022-12-13T03:32:43;98840.06;;;-7.80;90.96
51972;BME280;37991;49.662;10.060;2022-12-13T03:35:08;98830.75;;;-7.81;90.91
51972;BME280;37991;49.662;10.060;2022-12-13T03:37:33;98833.31;;;-7.81;90.75
51972;BME280;37991;49.662;10.060;2022-12-13T03:39:59;98827.38;;;-7.84;90.94
51972;BME280;37991;49.662;10.060;2022-12-13T03:42:24;98826.56;;;-7.88;91.22
51972;BME280;37991;49.662;10.060;2022-12-13T03:44:50;98835.84;;;-7.85;91.63
51972;BME280;37991;49.662;10.060;2022-12-13T03:47:16;98821.44;;;-7.85;91.77
51972;BME280;37991;49.662;10.060;2022-12-13T03:49:41;98838.41;;;-7.90;91.69
51972;BME280;37991;49.662;10.060;2022-12-13T03:52:07;98835.00;;;-7.86;91.25
51972;BME280;37991;49.662;10.060;2022-12-13T03:54:33;98835.88;;;-7.90;90.84
51972;BME280;37991;49.662;10.060;2022-12-13T03:56:58;98844.38;;;-7.94;90.40
51972;BME280;37991;49.662;10.060;2022-12-13T03:59:24;98837.56;;;-7.95;90.01
51972;BME280;37991;49.662;10.060;2022-12-13T04:01:49;98835.94;;;-8.04;90.03
51972;BME280;37991;49.662;10.060;2022-12-13T04:04:15;98835.94;;;-8.14;89.53
51972;BME280;37991;49.662;10.060;2022-12-13T04:06:41;98825.78;;;-8.14;89.82
51972;BME280;37991;49.662;10.060;2022-12-13T04:09:06;98819.00;;;-8.17;89.83
51972;BME280;37991;49.662;10.060;2022-12-13T04:11:32;98827.44;;;-8.07;89.65
51972;BME280;37991;49.662;10.060;2022-12-13T04:14:16;98825.78;;;-8.11;88.85
51972;BME280;37991;49.662;10.060;2022-12-13T04:16:41;98836.81;;;-8.15;89.14
51972;BME280;37991;49.662;10.060;2022-12-13T04:19:06;98826.66;;;-8.15;89.26
51972;BME280;37991;49.662;10.060;2022-12-13T04:21:32;98824.09;;;-8.19;89.42
51972;BME280;37991;49.662;10.060;2022-12-13T04:23:59;98825.81;;;-8.19;89.54
51972;BME280;37991;49.662;10.060;2022-12-13T04:26:24;98821.56;;;-8.20;89.39
51972;BME280;37991;49.662;10.060;2022-12-13T04:28:50;98824.09;;;-8.23;89.53
51972;BME280;37991;49.662;10.060;2022-12-13T04:31:15;98826.66;;;-8.22;89.77
51972;BME280;37991;49.662;10.060;2022-12-13T04:33:41;98827.50;;;-8.27;89.97
51972;BME280;37991;49.662;10.060;2022-12-13T04:36:06;98827.50;;;-8.24;90.21
51972;BME280;37991;49.662;10.060;2022-12-13T04:38:32;98827.50;;;-8.24;89.97
51972;BME280;37991;49.662;10.060;2022-12-13T04:41:06;98816.50;;;-8.31;90.08
51972;BME280;37991;49.662;10.060;2022-12-13T04:43:32;98826.69;;;-8.31;90.41
51972;BME280;37991;49.662;10.060;2022-12-13T04:45:58;98821.59;;;-8.31;90.31
51972;BME280;37991;49.662;10.060;2022-12-13T04:48:23;98819.88;;;-8.27;90.04
51972;BME280;37991;49.662;10.060;2022-12-13T04:50:49;98820.75;;;-8.25;90.20
51972;BME280;37991;49.662;10.060;2022-12-13T04:53:14;98814.81;;;-8.30;90.01
51972;BME280;37991;49.662;10.060;2022-12-13T04:55:42;98821.59;;;-8.28;89.61
51972;BME280;37991;49.662;10.060;2022-12-13T04:58:07;98830.09;;;-8.32;89.70
51972;BME280;37991;49.662;10.060;2022-12-13T05:00:33;98830.94;;;-8.37;88.98
51972;BME280;37991;49.662;10.060;2022-12-13T05:02:58;98829.28;;;-8.41;89.40
51972;BME280;37991;49.662;10.060;2022-12-13T05:05:24;98821.66;;;-8.43;89.11
51972;BME280;37991;49.662;10.060;2022-12-13T05:07:49;98826.72;;;-8.40;89.01
51972;BME280;37991;49.662;10.060;2022-12-13T05:10:14;98814.88;;;-8.39;88.81
51972;BME280;37991;49.662;10.060;2022-12-13T05:12:40;98811.47;;;-8.40;88.93
51972;BME280;37991;49.662;10.060;2022-12-13T05:15:06;98820.81;;;-8.47;88.49
51972;BME280;37991;49.662;10.060;2022-12-13T05:17:32;98808.97;;;-8.48;88.41
51972;BME280;37991;49.662;10.060;2022-12-13T05:19:58;98808.13;;;-8.51;88.28
51972;BME280;37991;49.662;10.060;2022-12-13T05:22:23;98809.81;;;-8.56;88.13
51972;BME280;37991;49.662;10.060;2022-12-13T05:24:48;98808.97;;;-8.61;88.80
51972;BME280;37991;49.662;10.060;2022-12-13T05:27:14;98811.53;;;-8.60;88.94
51972;BME280;37991;49.662;10.060;2022-12-13T05:29:40;98808.16;;;-8.60;88.77
51972;BME280;37991;49.662;10.060;2022-12-13T05:32:05;98813.22;;;-8.60;88.91
51972;BME280;37991;49.662;10.060;2022-12-13T05:34:30;98817.47;;;-8.66;89.16
51972;BME280;37991;49.662;10.060;2022-12-13T05:36:56;98813.22;;;-8.62;89.22
51972;BME280;37991;49.662;10.060;2022-12-13T05:39:21;98814.03;;;-8.55;89.38
51972;BME280;37991;49.662;10.060;2022-12-13T05:41:47;98813.22;;;-8.54;88.57
51972;BME280;37991;49.662;10.060;2022-12-13T05:44:12;98814.06;;;-8.58;88.21
51972;BME280;37991;49.662;10.060;2022-12-13T05:46:39;98812.41;;;-8.67;87.71
51972;BME280;37991;49.662;10.060;2022-12-13T05:49:04;98812.41;;;-8.67;87.59
51972;BME280;37991;49.662;10.060;2022-12-13T05:51:30;98820.00;;;-8.69;87.87
51972;BME280;37991;49.662;10.060;2022-12-13T05:53:55;98814.09;;;-8.75;88.23
51972;BME280;37991;49.662;10.060;2022-12-13T05:56:21;98809.00;;;-8.71;88.70
51972;BME280;37991;49.662;10.060;2022-12-13T05:58:46;98819.16;;;-8.68;88.75
51972;BME280;37991;49.662;10.060;2022-12-13T06:01:13;98814.91;;;-8.69;88.19
51972;BME280;37991;49.662;10.060;2022-12-13T06:03:40;98814.94;;;-8.78;88.07
51972;BME280;37991;49.662;10.060;2022-12-13T06:06:07;98819.16;;;-8.72;88.36
51972;BME280;37991;49.662;10.060;2022-12-13T06:08:33;98811.56;;;-8.71;88.40
51972;BME280;37991;49.662;10.060;2022-12-13T06:11:00;98803.06;;;-8.74;88.26
51972;BME280;37991;49.662;10.060;2022-12-13T06:13:26;98807.31;;;-8.76;88.35
51972;BME280;37991;49.662;10.060;2022-12-13T06:15:52;98809.88;;;-8.90;87.62
51972;BME280;37991;49.662;10.060;2022-12-13T06:18:17;98810.72;;;-8.97;88.10
51972;BME280;37991;49.662;10.060;2022-12-13T06:20:43;98809.00;;;-8.94;88.35
51972;BME280;37991;49.662;10.060;2022-12-13T06:23:08;98814.13;;;-9.06;88.34
51972;BME280;37991;49.662;10.060;2022-12-13T06:25:35;98823.41;;;-9.06;88.13
51972;BME280;37991;49.662;10.060;2022-12-13T06:28:01;98815.78;;;-9.14;88.13
51972;BME280;37991;49.662;10.060;2022-12-13T06:30:30;98813.25;;;-9.19;88.32
51972;BME280;37991;49.662;10.060;2022-12-13T06:32:56;98813.25;;;-9.16;88.68
51972;BME280;37991;49.662;10.060;2022-12-13T06:35:21;98808.19;;;-9.17;88.54
51972;BME280;37991;49.662;10.060;2022-12-13T06:37:51;98803.94;;;-9.14;88.54
51972;BME280;37991;49.662;10.060;2022-12-13T06:40:16;98814.09;;;-9.10;87.98
51972;BME280;37991;49.662;10.060;2022-12-13T06:42:42;98816.63;;;-9.07;87.59
51972;BME280;37991;49.662;10.060;2022-12-13T06:45:07;98819.19;;;-9.09;87.03
51972;BME280;37991;49.662;10.060;2022-12-13T06:47:33;98820.84;;;-9.09;86.85
51972;BME280;37991;49.662;10.060;2022-12-13T06:49:58;98814.09;;;-9.15;86.33
51972;BME280;37991;49.662;10.060;2022-12-13T06:52:23;98811.53;;;-9.26;85.77
51972;BME280;37991;49.662;10.060;2022-12-13T06:54:49;98810.72;;;-9.31;86.00
51972;BME280;37991;49.662;10.060;2022-12-13T06:57:14;98817.47;;;-9.31;86.11
51972;BME280;37991;49.662;10.060;2022-12-13T06:59:40;98819.13;;;-9.35;86.46
51972;BME280;37991;49.662;10.060;2022-12-13T07:02:05;98825.06;;;-9.30;86.59
51972;BME280;37991;49.662;10.060;2022-12-13T07:04:31;98826.78;;;-9.27;86.69
51972;BME280;37991;49.662;10.060;2022-12-13T07:06:57;98832.69;;;-9.25;86.72
51972;BME280;37991;49.662;10.060;2022-12-13T07:09:22;98828.47;;;-9.22;86.60
51972;BME280;37991;49.662;10.060;2022-12-13T07:11:48;98832.69;;;-9.22;86.14
51972;BME280;37991;49.662;10.060;2022-12-13T07:14:13;98820.84;;;-9.23;86.23
51972;BME280;37991;49.662;10.060;2022-12-13T07:16:38;98817.47;;;-9.21;86.58
51972;BME280;37991;49.662;10.060;2022-12-13T07:19:04;98820.00;;;-9.24;86.53
51972;BME280;37991;49.662;10.060;2022-12-13T07:21:30;98814.09;;;-9.20;86.62
51972;BME280;37991;49.662;10.060;2022-12-13T07:23:55;98822.53;;;-9.22;86.66
51972;BME280;37991;49.662;10.060;2022-12-13T07:26:21;98818.31;;;-9.25;86.19
51972;BME280;37991;49.662;10.060;2022-12-13T07:28:47;98820.00;;;-9.30;86.46
51972;BME280;37991;49.662;10.060;2022-12-13T07:31:13;98831.03;;;-9.19;85.98
51972;BME280;37991;49.662;10.060;2022-12-13T07:33:39;98823.38;;;-9.29;86.20
51972;BME280;37991;49.662;10.060;2022-12-13T07:36:13;98825.94;;;-9.26;86.55
51972;BME280;37991;49.662;10.060;2022-12-13T07:38:39;98830.16;;;-9.21;85.81
51972;BME280;37991;49.662;10.060;2022-12-13T07:41:05;98827.63;;;-9.24;84.86
51972;BME280;37991;49.662;10.060;2022-12-13T07:43:32;98826.75;;;-9.26;85.62
51972;BME280;37991;49.662;10.060;2022-12-13T07:45:58;98832.69;;;-9.19;85.66
51972;BME280;37991;49.662;10.060;2022-12-13T07:48:24;98831.03;;;-9.22;85.67
51972;BME280;37991;49.662;10.060;2022-12-13T07:50:51;98838.63;;;-9.19;85.91
51972;BME280;37991;49.662;10.060;2022-12-13T07:53:16;98845.41;;;-9.11;86.32
51972;BME280;37991;49.662;10.060;2022-12-13T07:55:42;98846.25;;;-9.08;86.08
51972;BME280;37991;49.662;10.060;2022-12-13T07:58:09;98847.09;;;-9.06;86.95
51972;BME280;37991;49.662;10.060;2022-12-13T08:00:41;98853.84;;;-9.00;86.95
51972;BME280;37991;49.662;10.060;2022-12-13T08:03:08;98850.47;;;-9.01;87.21
51972;BME280;37991;49.662;10.060;2022-12-13T08:05:34;98855.56;;;-9.02;87.63
51972;BME280;37991;49.662;10.060;2022-12-13T08:08:00;98839.47;;;-9.00;87.59
51972;BME280;37991;49.662;10.060;2022-12-13T08:10:26;98848.78;;;-8.94;87.25
51972;BME280;37991;49.662;10.060;2022-12-13T08:12:51;98852.16;;;-8.97;87.16
51972;BME280;37991;49.662;10.060;2022-12-13T08:15:17;98851.34;;;-8.99;87.42
51972;BME280;37991;49.662;10.060;2022-12-13T08:17:43;98855.56;;;-8.96;86.97
51972;BME280;37991;49.662;10.060;2022-12-13T08:20:09;98858.13;;;-8.93;87.20
51972;BME280;37991;49.662;10.060;2022-12-13T08:22:34;98852.19;;;-8.92;87.81
51972;BME280;37991;49.662;10.060;2022-12-13T08:25:00;98848.78;;;-8.88;87.54
51972;BME280;37991;49.662;10.060;2022-12-13T08:27:25;98847.94;;;-8.78;87.45
51972;BME280;37991;49.662;10.060;2022-12-13T08:29:52;98843.72;;;-8.83;87.27
51972;BME280;37991;49.662;10.060;2022-12-13T08:32:17;98839.50;;;-8.80;87.59
51972;BME280;37991;49.662;10.060;2022-12-13T08:34:43;98843.72;;;-8.80;87.66
51972;BME280;37991;49.662;10.060;2022-12-13T08:37:09;98844.56;;;-8.80;87.57
51972;BME280;37991;49.662;10.060;2022-12-13T08:39:36;98847.94;;;-8.75;87.72
51972;BME280;37991;49.662;10.060;2022-12-13T08:42:14;98855.56;;;-8.70;87.87
51972;BME280;37991;49.662;10.060;2022-12-13T08:44:41;98854.72;;;-8.64;87.49
51972;BME280;37991;49.662;10.060;2022-12-13T08:47:06;98859.81;;;-8.64;87.70
51972;BME280;37991;49.662;10.060;2022-12-13T08:49:32;98861.47;;;-8.59;87.78
51972;BME280;37991;49.662;10.060;2022-12-13T08:51:58;98863.19;;;-8.55;87.28
51972;BME280;37991;49.662;10.060;2022-12-13T08:54:23;98864.88;;;-8.41;87.82
51972;BME280;37991;49.662;10.060;2022-12-13T08:56:49;98863.16;;;-8.41;87.99
51972;BME280;37991;49.662;10.060;2022-12-13T08:59:14;98862.25;;;-8.31;88.29
51972;BME280;37991;49.662;10.060;2022-12-13T09:01:40;98861.41;;;-8.19;88.19
51972;BME280;37991;49.662;10.060;2022-12-13T09:04:05;98860.50;;;-8.04;87.78
51972;BME280;37991;49.662;10.060;2022-12-13T09:06:31;98863.84;;;-7.95;88.05
51972;BME280;37991;49.662;10.060;2022-12-13T09:08:57;98862.16;;;-7.85;87.57
51972;BME280;37991;49.662;10.060;2022-12-13T09:11:22;98856.13;;;-7.68;87.56
51972;BME280;37991;49.662;10.060;2022-12-13T09:13:48;98846.75;;;-7.56;87.97
51972;BME280;37991;49.662;10.060;2022-12-13T09:16:17;98838.19;;;-7.47;87.64
51972;BME280;37991;49.662;10.060;2022-12-13T09:18:44;98838.97;;;-7.34;87.59
51972;BME280;37991;49.662;10.060;2022-12-13T09:21:12;98838.06;;;-7.22;87.61
51972;BME280;37991;49.662;10.060;2022-12-13T09:23:39;98842.22;;;-7.09;87.64
51972;BME280;37991;49.662;10.060;2022-12-13T09:26:08;98839.66;;;-7.06;87.76
51972;BME280;37991;49.662;10.060;2022-12-13T09:28:36;98838.75;;;-6.97;87.60
51972;BME280;37991;49.662;10.060;2022-12-13T09:31:09;98842.00;;;-6.82;87.88
51972;BME280;37991;49.662;10.060;2022-12-13T09:33:35;98837.66;;;-6.70;88.30
51972;BME280;37991;49.662;10.060;2022-12-13T09:36:05;98847.00;;;-6.66;88.19
51972;BME280;37991;49.662;10.060;2022-12-13T09:38:32;98844.38;;;-6.62;87.83
51972;BME280;37991;49.662;10.060;2022-12-13T09:41:02;98836.75;;;-6.60;87.26
51972;BME280;37991;49.662;10.060;2022-12-13T09:43:32;98840.94;;;-6.58;88.23
51972;BME280;37991;49.662;10.060;2022-12-13T09:46:00;98830.00;;;-6.67;87.39
51972;BME280;37991;49.662;10.060;2022-12-13T09:48:28;98823.16;;;-6.64;88.84
51972;BME280;37991;49.662;10.060;2022-12-13T09:50:54;98828.16;;;-6.50;89.09
51972;BME280;37991;49.662;10.060;2022-12-13T09:53:24;98831.59;;;-6.54;88.57
51972;BME280;37991;49.662;10.060;2022-12-13T09:55:50;98822.25;;;-6.53;88.51
51972;BME280;37991;49.662;10.060;2022-12-13T09:58:22;98832.47;;;-6.57;88.37
51972;BME280;37991;49.662;10.060;2022-12-13T10:00:51;98826.38;;;-6.45;88.67
51972;BME280;37991;49.662;10.060;2022-12-13T10:03:19;98820.47;;;-6.47;88.47
51972;BME280;37991;49.662;10.060;2022-12-13T10:05:55;98817.06;;;-6.44;88.75
51972;BME280;37991;49.662;10.060;2022-12-13T10:08:24;98823.00;;;-6.45;88.81
51972;BME280;37991;49.662;10.060;2022-12-13T10:10:52;98830.63;;;-6.44;89.88
51972;BME280;37991;49.662;10.060;2022-12-13T10:13:36;98833.84;;;-6.26;90.35
51972;BME280;37991;49.662;10.060;2022-12-13T10:16:13;98836.28;;;-6.14;91.22
51972;BME280;37991;49.662;10.060;2022-12-13T10:18:41;98837.03;;;-6.03;91.09
51972;BME280;37991;49.662;10.060;2022-12-13T10:21:16;98826.63;;;-5.89;90.69
51972;BME280;37991;49.662;10.060;2022-12-13T10:23:44;98831.63;;;-5.81;89.53
51972;BME280;37991;49.662;10.060;2022-12-13T10:26:11;98833.22;;;-5.73;89.50
51972;BME280;37991;49.662;10.060;2022-12-13T10:28:38;98833.13;;;-5.67;89.84
51972;BME280;37991;49.662;10.060;2022-12-13T10:31:05;98823.69;;;-5.60;89.59
51972;BME280;37991;49.662;10.060;2022-12-13T10:33:34;98830.44;;;-5.54;90.08
51972;BME280;37991;49.662;10.060;2022-12-13T10:36:14;98808.22;;;-5.48;89.68
51972;BME280;37991;49.662;10.060;2022-12-13T10:38:44;98814.97;;;-5.44;90.04
51972;BME280;37991;49.662;10.060;2022-12-13T10:46:46;98812.38;;;-5.41;89.20
51972;BME280;37991;49.662;10.060;2022-12-13T10:49:16;98815.09;;;-5.51;88.15
51972;BME280;37991;49.662;10.060;2022-12-13T10:51:42;98813.38;;;-5.52;89.07
51972;BME280;37991;49.662;10.060;2022-12-13T10:54:35;98813.38;;;-5.52;88.82
51972;BME280;37991;49.662;10.060;2022-12-13T10:57:02;98812.47;;;-5.48;88.34
51972;BME280;37991;49.662;10.060;2022-12-13T10:59:32;98814.91;;;-5.39;89.62
51972;BME280;37991;49.662;10.060;2022-12-13T11:02:00;98810.59;;;-5.35;89.30
51972;BME280;37991;49.662;10.060;2022-12-13T11:04:34;98799.44;;;-5.30;90.16
51972;BME280;37991;49.662;10.060;2022-12-13T11:07:29;98800.25;;;-5.28;90.04
51972;BME280;37991;49.662;10.060;2022-12-13T11:09:57;98785.78;;;-5.27;89.96
51972;BME280;37991;49.662;10.060;2022-12-13T11:12:25;98779.59;;;-5.12;90.64
51972;BME280;37991;49.662;10.060;2022-12-13T11:14:54;98777.84;;;-5.09;89.67
51972;BME280;37991;49.662;10.060;2022-12-13T11:17:23;98777.81;;;-5.07;89.68
51972;BME280;37991;49.662;10.060;2022-12-13T11:19:53;98775.34;;;-5.12;89.83
51972;BME280;37991;49.662;10.060;2022-12-13T11:22:22;98777.09;;;-5.17;89.75
51972;BME280;37991;49.662;10.060;2022-12-13T11:24:51;98773.50;;;-5.04;89.88
51972;BME280;37991;49.662;10.060;2022-12-13T11:29:56;98760.41;;;-4.84;89.92
51972;BME280;37991;49.662;10.060;2022-12-13T11:32:50;98757.78;;;-4.81;89.44
51972;BME280;37991;49.662;10.060;2022-12-13T11:38:27;98746.72;;;-4.81;88.89
51972;BME280;37991;49.662;10.060;2022-12-13T11:41:02;98738.91;;;-4.72;89.61
51972;BME280;37991;49.662;10.060;2022-12-13T11:43:40;98731.16;;;-4.69;89.72
51972;BME280;37991;49.662;10.060;2022-12-13T11:46:36;98726.81;;;-4.62;90.24
51972;BME280;37991;49.662;10.060;2022-12-13T11:49:08;98719.63;;;-4.45;89.37
51972;BME280;37991;49.662;10.060;2022-12-13T11:51:42;98703.53;;;-4.50;90.50
51972;BME280;37991;49.662;10.060;2022-12-13T11:54:16;98700.13;;;-4.49;90.96
51972;BME280;37991;49.662;10.060;2022-12-13T11:56:44;98695.66;;;-4.39;90.80
51972;BME280;37991;49.662;10.060;2022-12-13T12:01:53;98697.00;;;-4.22;90.68
51972;BME280;37991;49.662;10.060;2022-12-13T12:04:42;98691.81;;;-4.18;91.00
51972;BME280;37991;49.662;10.060;2022-12-13T12:07:18;98699.34;;;-4.11;90.76
51972;BME280;37991;49.662;10.060;2022-12-13T12:09:56;98709.47;;;-4.05;91.10
51972;BME280;37991;49.662;10.060;2022-12-13T12:12:29;98690.78;;;-4.10;89.33
51972;BME280;37991;49.662;10.060;2022-12-13T12:15:12;98694.75;;;-3.95;90.28
51972;BME280;37991;49.662;10.060;2022-12-13T12:17:39;98690.34;;;-3.88;90.48
51972;BME280;37991;49.662;10.060;2022-12-13T12:20:11;98693.75;;;-3.89;89.21
51972;BME280;37991;49.662;10.060;2022-12-13T12:25:43;98685.81;;;-3.77;89.08
51972;BME280;37991;49.662;10.060;2022-12-13T12:31:00;98690.91;;;-3.77;87.21
51972;BME280;37991;49.662;10.060;2022-12-13T12:36:33;98684.81;;;-3.70;88.67
51972;BME280;37991;49.662;10.060;2022-12-13T12:41:59;98680.53;;;-3.69;88.35
51972;BME280;37991;49.662;10.060;2022-12-13T12:44:39;98682.91;;;-3.62;87.73
51972;BME280;37991;49.662;10.060;2022-12-13T12:47:26;98687.94;;;-3.57;88.62
51972;BME280;37991;49.662;10.060;2022-12-13T12:52:48;98691.97;;;-3.47;87.54
51972;BME280;37991;49.662;10.060;2022-12-13T12:58:07;98676.69;;;-3.52;87.65
51972;BME280;37991;49.662;10.060;2022-12-13T13:00:44;98682.63;;;-3.49;87.90
51972;BME280;37991;49.662;10.060;2022-12-13T13:05:48;98672.25;;;-3.45;88.05
51972;BME280;37991;49.662;10.060;2022-12-13T13:11:05;98674.94;;;-3.51;87.21
51972;BME280;37991;49.662;10.060;2022-12-13T13:13:32;98662.81;;;-3.41;87.07
51972;BME280;37991;49.662;10.060;2022-12-13T13:15:58;98671.34;;;-3.42;87.56
51972;BME280;37991;49.662;10.060;2022-12-13T13:18:49;98674.75;;;-3.42;87.61
51972;BME280;37991;49.662;10.060;2022-12-13T13:26:42;98667.94;;;-3.43;87.49
51972;BME280;37991;49.662;10.060;2022-12-13T13:34:34;98652.44;;;-3.37;87.98
51972;BME280;37991;49.662;10.060;2022-12-13T13:37:02;98656.78;;;-3.40;87.82
51972;BME280;37991;49.662;10.060;2022-12-13T14:07:52;98668.09;;;-3.49;88.16
51972;BME280;37991;49.662;10.060;2022-12-13T14:10:27;98674.03;;;-3.48;87.88
51972;BME280;37991;49.662;10.060;2022-12-13T14:16:22;98671.56;;;-3.52;89.26
51972;BME280;37991;49.662;10.060;2022-12-13T14:29:43;98668.50;;;-3.66;89.75
51972;BME280;37991;49.662;10.060;2022-12-13T14:32:18;98672.00;;;-3.70;89.50
51972;BME280;37991;49.662;10.060;2022-12-13T14:34:45;98660.06;;;-3.71;89.83
51972;BME280;37991;49.662;10.060;2022-12-13T14:37:32;98664.41;;;-3.75;90.22
51972;BME280;37991;49.662;10.060;2022-12-13T14:39:59;98674.78;;;-3.79;90.10
51972;BME280;37991;49.662;10.060;2022-12-13T14:42:30;98676.53;;;-3.81;90.23
51972;BME280;37991;49.662;10.060;2022-12-13T14:45:23;98668.91;;;-3.84;90.11